createdAt,value
2018-06-16T00:00:32.048Z,8.23
2018-06-16T00:03:00.467Z,9.33
2018-06-16T00:05:28.887Z,10.13
2018-06-16T00:07:57.265Z,9.67
2018-06-16T00:10:25.674Z,8.13
2018-06-16T00:12:54.079Z,10.23
2018-06-16T00:15:22.523Z,9.93
2018-06-16T00:17:50.630Z,9.37
2018-06-16T00:20:19.035Z,8.47
2018-06-16T00:22:47.423Z,12.77
2018-06-16T00:25:15.840Z,10.73
2018-06-16T00:27:44.220Z,10.40
2018-06-16T00:30:12.351Z,9.13
2018-06-16T00:32:40.737Z,9.67
2018-06-16T00:35:09.193Z,7.90
2018-06-16T00:37:37.697Z,9.50
2018-06-16T00:40:06.083Z,9.10
2018-06-16T00:42:34.476Z,8.83
2018-06-16T00:45:04.265Z,8.80
2018-06-16T00:47:32.659Z,9.10
2018-06-16T00:50:01.036Z,10.10
2018-06-16T00:52:29.441Z,9.20
2018-06-16T00:54:57.830Z,8.83
2018-06-16T00:57:37.629Z,8.40
2018-06-16T01:00:06.052Z,10.50
2018-06-16T01:02:34.476Z,9.10
2018-06-16T01:05:02.850Z,9.57
2018-06-16T01:07:31.261Z,9.43
2018-06-16T01:09:59.656Z,9.20
2018-06-16T01:12:28.056Z,9.00
2018-06-16T01:14:56.528Z,8.77
2018-06-16T01:17:24.928Z,10.17
2018-06-16T01:19:53.376Z,11.50
2018-06-16T01:22:21.803Z,10.50
2018-06-16T01:24:50.225Z,10.53
2018-06-16T01:27:18.596Z,10.70
2018-06-16T01:29:47.005Z,11.33
2018-06-16T01:32:15.387Z,15.30
2018-06-16T01:34:43.800Z,10.90
2018-06-16T01:37:12.171Z,8.97
2018-06-16T01:39:40.578Z,10.37
2018-06-16T01:42:08.972Z,11.63
2018-06-16T01:44:37.371Z,10.07
2018-06-16T01:47:05.980Z,9.80
2018-06-16T01:49:34.392Z,10.20
2018-06-16T01:52:02.793Z,12.10
2018-06-16T01:54:31.200Z,10.93
2018-06-16T01:56:59.607Z,9.63
2018-06-16T01:59:28.035Z,14.90
2018-06-16T02:01:56.424Z,9.90
2018-06-16T02:04:24.845Z,13.70
2018-06-16T02:06:53.237Z,10.90
2018-06-16T02:09:21.682Z,11.20
2018-06-16T02:11:50.068Z,9.17
2018-06-16T02:14:18.462Z,10.20
2018-06-16T02:16:46.902Z,10.57
2018-06-16T02:19:15.284Z,9.97
2018-06-16T02:21:43.690Z,13.13
2018-06-16T02:24:12.080Z,12.00
2018-06-16T02:26:40.484Z,10.47
2018-06-16T02:29:08.879Z,10.10
2018-06-16T02:31:37.289Z,9.80
2018-06-16T02:34:05.732Z,13.60
2018-06-16T02:36:34.129Z,8.30
2018-06-16T02:39:02.541Z,9.67
2018-06-16T02:41:30.932Z,9.30
2018-06-16T02:43:59.313Z,8.03
2018-06-16T02:46:27.817Z,9.57
2018-06-16T02:48:56.231Z,9.17
2018-06-16T02:51:24.649Z,10.20
2018-06-16T02:53:53.036Z,11.47
2018-06-16T02:56:21.456Z,9.93
2018-06-16T02:58:49.841Z,10.70
2018-06-16T03:01:18.253Z,11.43
2018-06-16T03:03:46.659Z,11.33
2018-06-16T03:06:15.048Z,9.10
2018-06-16T03:08:46.468Z,10.43
2018-06-16T03:11:14.846Z,10.03
2018-06-16T03:13:43.248Z,10.47
2018-06-16T03:16:11.644Z,10.23
2018-06-16T03:18:40.085Z,10.23
2018-06-16T03:21:08.478Z,9.47
2018-06-16T03:23:37.062Z,9.33
2018-06-16T03:26:05.444Z,10.50
2018-06-16T03:28:34.059Z,11.00
2018-06-16T03:31:02.476Z,9.33
2018-06-16T03:33:30.985Z,9.63
2018-06-16T03:35:59.388Z,9.13
2018-06-16T03:38:27.789Z,9.77
2018-06-16T03:40:56.178Z,11.17
2018-06-16T03:43:24.756Z,10.33
2018-06-16T03:45:53.212Z,11.23
2018-06-16T03:48:21.632Z,10.63
2018-06-16T03:50:50.040Z,9.87
2018-06-16T03:53:18.483Z,8.80
2018-06-16T03:55:46.899Z,9.30
2018-06-16T03:58:15.322Z,8.80
2018-06-16T04:00:43.796Z,8.77
2018-06-16T04:03:12.236Z,8.23
2018-06-16T04:05:40.676Z,10.13
2018-06-16T04:08:09.101Z,9.23
2018-06-16T04:10:37.573Z,10.37
2018-06-16T04:13:06.008Z,12.30
2018-06-16T04:15:34.443Z,9.47
2018-06-16T04:18:02.877Z,11.30
2018-06-16T04:20:31.310Z,9.63
2018-06-16T04:22:59.729Z,9.97
2018-06-16T04:25:28.176Z,11.67
2018-06-16T04:27:56.611Z,9.20
2018-06-16T04:30:25.052Z,9.87
2018-06-16T04:32:53.467Z,12.93
2018-06-16T04:35:21.907Z,9.20
2018-06-16T04:37:50.320Z,9.40
2018-06-16T04:40:18.804Z,11.00
2018-06-16T04:42:47.237Z,10.17
2018-06-16T04:45:15.667Z,11.30
2018-06-16T04:47:44.092Z,10.23
2018-06-16T04:50:12.543Z,10.47
2018-06-16T04:52:40.672Z,12.10
2018-06-16T04:55:09.127Z,11.70
2018-06-16T04:57:37.540Z,10.43
2018-06-16T05:00:06.091Z,10.20
2018-06-16T05:02:34.544Z,10.70
2018-06-16T05:05:03.089Z,10.43
2018-06-16T05:07:31.504Z,10.90
2018-06-16T05:09:59.908Z,9.63
2018-06-16T05:12:28.326Z,9.50
2018-06-16T05:14:56.723Z,9.83
2018-06-16T05:17:25.155Z,9.20
2018-06-16T05:19:53.271Z,9.63
2018-06-16T05:22:21.707Z,10.07
2018-06-16T05:24:50.115Z,8.30
2018-06-16T05:27:18.543Z,8.50
2018-06-16T05:29:46.966Z,9.43
2018-06-16T05:32:15.387Z,8.73
2018-06-16T05:34:43.791Z,8.67
2018-06-16T05:37:12.257Z,10.33
2018-06-16T05:39:40.655Z,10.23
2018-06-16T05:42:09.092Z,10.20
2018-06-16T05:44:37.495Z,11.47
2018-06-16T05:47:05.919Z,9.40
2018-06-16T05:49:34.324Z,9.30
2018-06-16T05:52:02.757Z,10.17
2018-06-16T05:54:31.165Z,8.77
2018-06-16T05:56:59.589Z,11.30
2018-06-16T05:59:28.016Z,11.43
2018-06-16T06:01:56.137Z,11.70
2018-06-16T06:04:24.593Z,13.73
2018-06-16T06:06:52.993Z,12.17
2018-06-16T06:09:21.451Z,13.00
2018-06-16T06:11:49.872Z,13.10
2018-06-16T06:14:18.342Z,13.27
2018-06-16T06:16:46.747Z,11.20
2018-06-16T06:19:15.184Z,12.47
2018-06-16T06:21:43.592Z,12.17
2018-06-16T06:24:12.040Z,14.20
2018-06-16T06:26:40.466Z,13.70
2018-06-16T06:29:08.887Z,13.10
2018-06-16T06:31:37.303Z,13.27
2018-06-16T06:34:05.758Z,14.20
2018-06-16T06:36:34.182Z,13.33
2018-06-16T06:39:02.716Z,13.47
2018-06-16T06:41:31.128Z,13.10
2018-06-16T06:43:59.537Z,13.37
2018-06-16T06:46:28.013Z,13.30
2018-06-16T06:48:56.499Z,12.17
2018-06-16T06:51:24.928Z,13.17
2018-06-16T06:53:53.359Z,11.23
2018-06-16T06:56:21.819Z,12.03
2018-06-16T06:58:50.224Z,11.77
2018-06-16T07:01:18.652Z,14.60
2018-06-16T07:03:47.139Z,12.93
2018-06-16T07:06:15.587Z,11.40
2018-06-16T07:08:44.021Z,11.70
2018-06-16T07:11:12.472Z,12.63
2018-06-16T07:13:40.892Z,13.70
2018-06-16T07:16:09.353Z,12.30
2018-06-16T07:18:37.759Z,10.47
2018-06-16T07:21:06.218Z,12.73
2018-06-16T07:23:34.659Z,11.40
2018-06-16T07:26:03.100Z,10.00
2018-06-16T07:28:31.540Z,12.80
2018-06-16T07:30:59.985Z,12.97
2018-06-16T07:33:28.435Z,12.50
2018-06-16T07:35:56.887Z,13.13
2018-06-16T07:38:25.334Z,12.30
2018-06-16T07:40:53.789Z,12.10
2018-06-16T07:43:22.244Z,12.27
2018-06-16T07:45:50.696Z,11.37
2018-06-16T07:48:19.136Z,11.07
2018-06-16T07:50:47.599Z,10.10
2018-06-16T07:53:16.048Z,10.57
2018-06-16T07:55:44.467Z,9.60
2018-06-16T07:58:12.923Z,10.20
2018-06-16T08:00:41.353Z,10.70
2018-06-16T08:03:09.825Z,11.07
2018-06-16T08:05:38.236Z,10.30
2018-06-16T08:08:06.667Z,12.27
2018-06-16T08:10:35.076Z,10.63
2018-06-16T08:13:03.507Z,8.43
2018-06-16T08:15:31.985Z,10.93
2018-06-16T08:18:00.454Z,9.43
2018-06-16T08:20:28.856Z,11.20
2018-06-16T08:22:57.289Z,8.83
2018-06-16T08:25:29.283Z,11.67
2018-06-16T08:27:57.695Z,9.00
2018-06-16T08:30:26.135Z,9.00
2018-06-16T08:32:54.549Z,10.10
2018-06-16T08:35:22.967Z,11.60
2018-06-16T08:37:51.340Z,13.17
2018-06-16T08:40:19.752Z,8.40
2018-06-16T08:42:48.177Z,11.27
2018-06-16T08:45:16.611Z,10.90
2018-06-16T08:47:45.025Z,10.40
2018-06-16T08:50:13.496Z,8.93
2018-06-16T08:52:41.900Z,11.93
2018-06-16T08:55:10.350Z,11.00
2018-06-16T08:57:38.761Z,9.93
2018-06-16T09:00:07.208Z,9.20
2018-06-16T09:02:35.643Z,9.10
2018-06-16T09:05:04.113Z,8.30
2018-06-16T09:07:32.520Z,8.63
2018-06-16T09:10:01.128Z,10.23
2018-06-16T09:12:29.552Z,8.77
2018-06-16T09:14:57.960Z,7.93
2018-06-16T09:17:26.427Z,6.97
2018-06-16T09:19:54.812Z,7.80
2018-06-16T09:22:23.258Z,8.43
2018-06-16T09:24:51.673Z,7.27
2018-06-16T09:27:20.096Z,8.63
2018-06-16T09:29:48.504Z,6.70
2018-06-16T09:32:16.951Z,7.73
2018-06-16T09:34:45.095Z,8.37
2018-06-16T09:37:13.539Z,7.47
2018-06-16T09:39:41.943Z,6.57
2018-06-16T09:42:10.379Z,8.10
2018-06-16T09:44:38.796Z,9.43
2018-06-16T09:47:07.239Z,8.07
2018-06-16T09:49:35.656Z,7.63
2018-06-16T09:52:04.110Z,7.87
2018-06-16T09:54:32.536Z,6.97
2018-06-16T09:57:00.980Z,8.60
2018-06-16T09:59:29.383Z,7.43
2018-06-16T10:01:57.930Z,8.30
2018-06-16T10:04:26.385Z,6.93
2018-06-16T10:06:54.844Z,5.87
2018-06-16T10:09:23.379Z,7.57
2018-06-16T10:11:51.717Z,7.07
2018-06-16T10:14:20.161Z,7.37
2018-06-16T10:16:48.596Z,8.07
2018-06-16T10:19:17.023Z,6.77
2018-06-16T10:21:45.451Z,6.07
2018-06-16T10:24:13.887Z,6.57
2018-06-16T10:26:42.312Z,7.53
2018-06-16T10:29:10.755Z,7.60
2018-06-16T10:31:39.182Z,6.53
2018-06-16T10:34:07.624Z,6.53
2018-06-16T10:36:36.064Z,7.73
2018-06-16T10:39:05.902Z,13.73
2018-06-16T10:41:34.327Z,11.90
2018-06-16T10:44:02.785Z,6.83
2018-06-16T10:46:31.213Z,9.83
2018-06-16T10:48:59.661Z,8.10
2018-06-16T10:51:28.092Z,10.23
2018-06-16T10:53:56.539Z,8.23
2018-06-16T10:56:24.972Z,8.00
2018-06-16T10:58:53.437Z,6.03
2018-06-16T11:01:21.859Z,6.50
2018-06-16T11:03:50.288Z,6.40
2018-06-16T11:06:18.732Z,6.00
2018-06-16T11:08:47.132Z,6.10
2018-06-16T11:11:15.563Z,6.37
2018-06-16T11:13:43.676Z,8.10
2018-06-16T11:16:12.120Z,6.07
2018-06-16T11:18:40.560Z,8.27
2018-06-16T11:21:08.986Z,5.50
2018-06-16T11:23:37.397Z,6.77
2018-06-16T11:26:05.840Z,5.87
2018-06-16T11:28:34.244Z,6.53
2018-06-16T11:31:02.667Z,5.33
2018-06-16T11:33:31.088Z,6.33
2018-06-16T11:35:59.567Z,5.73
2018-06-16T11:38:27.672Z,5.83
2018-06-16T11:40:56.166Z,5.00
2018-06-16T11:43:24.527Z,5.10
2018-06-16T11:45:52.955Z,5.73
2018-06-16T11:48:21.365Z,5.73
2018-06-16T11:50:49.800Z,6.20
2018-06-16T11:53:18.215Z,5.53
2018-06-16T11:55:46.620Z,5.10
2018-06-16T11:58:14.749Z,5.63
2018-06-16T12:00:43.176Z,5.50
2018-06-16T12:03:11.656Z,7.10
2018-06-16T12:05:39.780Z,7.50
2018-06-16T12:08:08.225Z,5.93
2018-06-16T12:10:36.651Z,5.17
2018-06-16T12:13:05.123Z,5.70
2018-06-16T12:15:33.598Z,5.63
2018-06-16T12:18:02.076Z,4.77
2018-06-16T12:20:30.552Z,5.37
2018-06-16T12:22:59.004Z,6.00
2018-06-16T12:25:27.448Z,5.20
2018-06-16T12:27:59.174Z,5.17
2018-06-16T12:30:28.445Z,5.80
2018-06-16T12:32:56.895Z,4.93
2018-06-16T12:35:25.327Z,4.90
2018-06-16T12:37:53.781Z,5.70
2018-06-16T12:40:22.205Z,4.67
2018-06-16T12:42:50.707Z,5.77
2018-06-16T12:45:19.143Z,5.17
2018-06-16T12:47:47.568Z,5.50
2018-06-16T12:50:16.021Z,5.63
2018-06-16T12:52:44.451Z,6.50
2018-06-16T12:55:12.900Z,5.67
2018-06-16T12:57:41.332Z,5.90
2018-06-16T13:00:09.794Z,5.17
2018-06-16T13:02:38.235Z,7.53
2018-06-16T13:05:06.824Z,5.30
2018-06-16T13:07:35.248Z,6.60
2018-06-16T13:10:03.753Z,5.40
2018-06-16T13:12:32.177Z,6.37
2018-06-16T13:15:00.628Z,5.70
2018-06-16T13:17:29.061Z,5.50
2018-06-16T13:19:57.504Z,6.80
2018-06-16T13:22:25.631Z,6.43
2018-06-16T13:24:54.074Z,5.20
2018-06-16T13:27:22.500Z,5.87
2018-06-16T13:29:50.919Z,6.40
2018-06-16T13:32:19.363Z,6.20
2018-06-16T13:34:47.793Z,5.30
2018-06-16T13:37:15.932Z,6.47
2018-06-16T13:39:44.351Z,6.47
2018-06-16T13:42:12.796Z,5.23
2018-06-16T13:44:41.227Z,6.67
2018-06-16T13:47:09.672Z,6.03
2018-06-16T13:49:38.134Z,5.47
2018-06-16T13:52:06.611Z,5.90
2018-06-16T13:54:35.039Z,5.30
2018-06-16T13:57:03.527Z,5.47
2018-06-16T13:59:31.955Z,7.33
2018-06-16T14:02:00.396Z,6.27
2018-06-16T14:04:28.849Z,6.53
2018-06-16T14:06:57.295Z,6.53
2018-06-16T14:09:25.744Z,5.50
2018-06-16T14:14:28.842Z,6.50
2018-06-16T14:16:57.264Z,6.10
2018-06-16T14:19:25.714Z,5.97
2018-06-16T14:21:54.135Z,6.80
2018-06-16T14:24:22.572Z,6.40
2018-06-16T14:26:51.032Z,6.20
2018-06-16T14:29:19.476Z,5.97
2018-06-16T14:31:47.906Z,5.73
2018-06-16T14:34:16.343Z,5.67
2018-06-16T14:36:44.806Z,6.10
2018-06-16T14:39:13.250Z,6.93
2018-06-16T14:41:41.680Z,5.80
2018-06-16T14:44:10.163Z,6.03
2018-06-16T14:46:38.724Z,6.93
2018-06-16T14:49:07.175Z,5.93
2018-06-16T14:51:35.603Z,6.57
2018-06-16T14:54:04.051Z,6.17
2018-06-16T14:56:32.495Z,6.50
2018-06-16T14:59:00.948Z,6.40
2018-06-16T15:01:32.216Z,5.70
2018-06-16T15:04:00.700Z,7.33
2018-06-16T15:06:29.136Z,8.33
2018-06-16T15:08:57.565Z,6.40
2018-06-16T15:11:26.015Z,6.83
2018-06-16T15:13:54.560Z,6.60
2018-06-16T15:16:23.012Z,6.73
2018-06-16T15:18:51.439Z,5.93
2018-06-16T15:21:19.884Z,7.70
2018-06-16T15:23:48.304Z,6.87
2018-06-16T15:26:16.756Z,6.13
2018-06-16T15:28:45.189Z,5.33
2018-06-16T15:31:13.651Z,6.50
2018-06-16T15:33:42.213Z,6.80
2018-06-16T15:36:10.664Z,6.63
2018-06-16T15:38:39.088Z,6.70
2018-06-16T15:41:07.550Z,6.00
2018-06-16T15:43:35.983Z,6.60
2018-06-16T15:46:04.443Z,6.20
2018-06-16T15:48:32.879Z,7.00
2018-06-16T15:51:01.300Z,6.17
2018-06-16T15:53:29.756Z,6.30
2018-06-16T15:55:58.179Z,8.33
2018-06-16T15:58:26.631Z,7.50
2018-06-16T16:00:55.068Z,6.80
2018-06-16T16:03:23.543Z,6.33
2018-06-16T16:05:52.017Z,6.03
2018-06-16T16:08:20.401Z,6.33
2018-06-16T16:10:48.813Z,6.17
2018-06-16T16:13:18.552Z,7.43
2018-06-16T16:15:46.962Z,7.53
2018-06-16T16:18:15.382Z,6.20
2018-06-16T16:20:43.800Z,7.37
2018-06-16T16:23:12.232Z,6.30
2018-06-16T16:25:40.676Z,7.07
2018-06-16T16:28:09.108Z,6.60
2018-06-16T16:30:37.537Z,6.90
2018-06-16T16:33:05.974Z,6.10
2018-06-16T16:35:34.389Z,8.00
2018-06-16T16:38:02.820Z,6.23
2018-06-16T16:40:31.228Z,6.17
2018-06-16T16:42:59.669Z,8.60
2018-06-16T16:45:28.128Z,6.07
2018-06-16T16:47:56.538Z,7.03
2018-06-16T16:50:24.976Z,5.53
2018-06-16T16:52:53.484Z,6.43
2018-06-16T16:55:21.943Z,5.63
2018-06-16T16:57:50.372Z,7.70
2018-06-16T17:00:18.805Z,5.83
2018-06-16T17:02:47.270Z,6.10
2018-06-16T17:05:15.699Z,6.40
2018-06-16T17:07:44.121Z,6.67
2018-06-16T17:10:12.556Z,5.33
2018-06-16T17:12:40.960Z,6.10
2018-06-16T17:15:09.396Z,5.43
2018-06-16T17:17:37.808Z,6.20
2018-06-16T17:20:06.447Z,5.23
2018-06-16T17:22:34.875Z,5.90
2018-06-16T17:25:03.312Z,5.77
2018-06-16T17:27:31.716Z,5.30
2018-06-16T17:30:00.164Z,6.47
2018-06-16T17:32:28.564Z,5.87
2018-06-16T17:34:56.976Z,5.27
2018-06-16T17:37:25.411Z,6.60
2018-06-16T17:39:54.013Z,6.87
2018-06-16T17:42:22.454Z,5.67
2018-06-16T17:44:50.854Z,6.30
2018-06-16T17:47:19.287Z,6.60
2018-06-16T17:49:47.695Z,7.17
2018-06-16T17:52:16.143Z,5.93
2018-06-16T17:54:44.551Z,6.40
2018-06-16T17:57:12.984Z,6.57
2018-06-16T17:59:41.393Z,6.10
2018-06-16T18:02:09.823Z,6.57
2018-06-16T18:04:38.244Z,7.17
2018-06-16T18:07:06.701Z,6.47
2018-06-16T18:09:35.115Z,7.87
2018-06-16T18:12:03.596Z,8.17
2018-06-16T18:14:32.032Z,8.03
2018-06-16T18:17:00.481Z,8.27
2018-06-16T18:19:28.892Z,8.50
2018-06-16T18:21:57.027Z,8.40
2018-06-16T18:24:25.452Z,9.20
2018-06-16T18:26:53.957Z,9.53
2018-06-16T18:29:22.380Z,8.90
2018-06-16T18:31:50.793Z,8.63
2018-06-16T18:34:19.289Z,8.40
2018-06-16T18:36:47.712Z,9.53
2018-06-16T18:39:16.239Z,7.70
2018-06-16T18:41:44.640Z,8.33
2018-06-16T18:44:13.068Z,8.03
2018-06-16T18:46:41.473Z,8.17
2018-06-16T18:49:09.904Z,8.53
2018-06-16T18:51:38.327Z,9.60
2018-06-16T18:54:06.815Z,8.73
2018-06-16T18:56:35.221Z,8.83
2018-06-16T18:59:03.650Z,9.57
2018-06-16T19:01:32.083Z,9.40
2018-06-16T19:04:00.547Z,9.10
2018-06-16T19:06:28.952Z,9.30
2018-06-16T19:08:57.379Z,9.57
2018-06-16T19:11:25.781Z,10.30
2018-06-16T19:13:54.211Z,9.10
2018-06-16T19:16:22.619Z,9.20
2018-06-16T19:18:51.037Z,8.37
2018-06-16T19:21:19.552Z,10.10
2018-06-16T19:23:47.965Z,9.47
2018-06-16T19:26:16.389Z,9.23
2018-06-16T19:28:44.820Z,8.90
2018-06-16T19:31:13.272Z,9.43
2018-06-16T19:33:41.680Z,8.97
2018-06-16T19:36:10.122Z,10.30
2018-06-16T19:38:38.522Z,9.70
2018-06-16T19:41:06.952Z,10.23
2018-06-16T19:43:35.360Z,10.30
2018-06-16T19:46:03.788Z,8.90
2018-06-16T19:48:32.191Z,9.10
2018-06-16T19:51:00.789Z,9.80
2018-06-16T19:53:29.196Z,9.70
2018-06-16T19:55:57.627Z,9.47
2018-06-16T19:58:26.038Z,8.93
2018-06-16T20:00:54.468Z,11.80
2018-06-16T20:03:22.919Z,9.03
2018-06-16T20:05:51.365Z,9.70
2018-06-16T20:08:19.798Z,8.90
2018-06-16T20:10:48.254Z,9.33
2018-06-16T20:13:16.690Z,10.30
2018-06-16T20:15:45.127Z,9.83
2018-06-16T20:18:14.419Z,10.37
2018-06-16T20:20:42.848Z,12.70
2018-06-16T20:23:11.330Z,10.17
2018-06-16T20:25:39.751Z,9.07
2018-06-16T20:28:08.247Z,10.27
2018-06-16T20:30:36.682Z,10.20
2018-06-16T20:33:05.132Z,10.70
2018-06-16T20:35:33.620Z,9.73
2018-06-16T20:38:02.112Z,9.87
2018-06-16T20:40:30.555Z,11.20
2018-06-16T20:42:59.007Z,11.10
2018-06-16T20:45:27.444Z,8.27
2018-06-16T20:47:55.905Z,8.20
2018-06-16T20:50:24.331Z,9.53
2018-06-16T20:52:52.779Z,9.37
2018-06-16T20:55:21.260Z,9.30
2018-06-16T20:57:49.723Z,9.03
2018-06-16T21:00:18.147Z,9.00
2018-06-16T21:02:46.599Z,10.50
2018-06-16T21:05:15.044Z,9.37
2018-06-16T21:07:43.520Z,9.40
2018-06-16T21:10:11.971Z,9.50
2018-06-16T21:12:40.401Z,9.43
2018-06-16T21:15:08.840Z,8.90
2018-06-16T21:17:37.272Z,10.53
2018-06-16T21:20:05.923Z,9.83
2018-06-16T21:22:34.370Z,10.67
2018-06-16T21:25:02.820Z,9.00
2018-06-16T21:27:31.243Z,11.33
2018-06-16T21:29:59.771Z,10.30
2018-06-16T21:32:28.212Z,10.00
2018-06-16T21:34:56.784Z,10.80
2018-06-16T21:37:25.202Z,9.57
2018-06-16T21:39:53.668Z,9.80
2018-06-16T21:42:22.111Z,10.47
2018-06-16T21:44:50.535Z,9.10
2018-06-16T21:47:18.983Z,10.87
2018-06-16T21:49:47.408Z,8.83
2018-06-16T21:52:15.856Z,10.37
2018-06-16T21:54:44.286Z,10.37
2018-06-16T21:57:12.736Z,9.40
2018-06-16T21:59:41.192Z,10.47
2018-06-16T22:02:09.684Z,10.50
2018-06-16T22:04:38.196Z,12.37
2018-06-16T22:07:06.656Z,11.77
2018-06-16T22:09:35.078Z,11.23
2018-06-16T22:12:03.516Z,9.97
2018-06-16T22:14:31.924Z,10.37
2018-06-16T22:17:00.355Z,10.67
2018-06-16T22:19:28.764Z,10.77
2018-06-16T22:21:57.192Z,8.97
2018-06-16T22:24:25.617Z,10.13
2018-06-16T22:26:54.074Z,10.53
2018-06-16T22:29:22.515Z,9.63
2018-06-16T22:31:50.916Z,9.77
2018-06-16T22:34:19.399Z,8.83
2018-06-16T22:36:47.801Z,9.77
2018-06-16T22:39:15.967Z,10.07
2018-06-16T22:41:44.392Z,10.53
2018-06-16T22:44:12.816Z,10.53
2018-06-16T22:46:41.240Z,10.40
2018-06-16T22:49:09.683Z,10.40
2018-06-16T22:51:38.086Z,10.83
2018-06-16T22:54:06.546Z,10.43
2018-06-16T22:56:34.976Z,10.50
2018-06-16T22:59:03.763Z,10.50
2018-06-16T23:01:32.179Z,10.30
2018-06-16T23:04:00.646Z,9.70
2018-06-16T23:06:29.077Z,10.27
2018-06-16T23:09:04.116Z,10.47
2018-06-16T23:11:32.544Z,9.63
2018-06-16T23:14:00.995Z,11.60
2018-06-16T23:16:29.452Z,10.17
2018-06-16T23:18:57.924Z,11.50
2018-06-16T23:21:26.354Z,10.57
2018-06-16T23:23:54.816Z,11.50
2018-06-16T23:26:24.056Z,10.33
2018-06-16T23:28:52.761Z,11.63
2018-06-16T23:31:21.325Z,10.43
2018-06-16T23:33:49.765Z,10.97
2018-06-16T23:36:17.915Z,10.80
2018-06-16T23:38:46.396Z,11.77
2018-06-16T23:41:21.296Z,11.50
2018-06-16T23:43:49.715Z,9.93
2018-06-16T23:46:18.188Z,12.70
2018-06-16T23:48:46.620Z,11.23
2018-06-16T23:51:15.093Z,11.03
2018-06-16T23:53:43.524Z,11.43
2018-06-16T23:56:11.989Z,11.50
2018-06-16T23:58:40.421Z,11.10
